Home > Products > Valid Products > TAF

000
FTUS41 KOKX 301700
TAFEWR
TAF
KEWR 301740Z 3018/0124 10008KT P6SM SCT020 BKN070
      TEMPO 3018/3020 BKN020
     FM010200 05008KT P6SM SCT015 BKN025
     FM010700 02010KT P6SM OVC015
     FM011400 01012G18KT P6SM OVC012=



000
FTUS41 KOKX 301700
TAFGON
TAF
KGON 301740Z 3018/0118 09010KT P6SM SCT035 BKN100
      TEMPO 3018/3022 6SM -RA
     FM302200 03010KT 5SM -RA BR OVC015
     FM010400 03012KT 3SM -RA BR OVC008
     FM011100 02012G18KT 2SM RA BR OVC006=



000
FTUS41 KOKX 301700
TAFTEB
TAF
KTEB 301740Z 3018/0118 10007KT P6SM SCT020 BKN060
      TEMPO 3018/3019 BKN020
     FM010200 03006KT P6SM SCT015 BKN025
     FM010700 01009KT P6SM OVC015
     FM011400 01010G15KT P6SM OVC012=



000
FTUS41 KOKX 301700
TAFJFK
TAF
KJFK 301740Z 3018/0124 09006KT P6SM SCT025 BKN060
      TEMPO 3018/3020 BKN025
     FM010200 04010KT P6SM SCT015 BKN025
     FM010700 02012KT P6SM OVC015
     FM011400 02014G20KT P6SM OVC012=



000
FTUS41 KOKX 301700
TAFSWF
TAF
KSWF 301740Z 3018/0124 12011KT P6SM SCT015 BKN030
     FM302000 11007KT P6SM SCT020 BKN035
     FM010300 08006KT P6SM FEW010 BKN020
     FM010800 06006KT 3SM BR SCT006 BKN015
     FM011400 06008KT 6SM BR OVC015
      AMD NOT SKED=



000
FTUS41 KOKX 301700
TAFISP
TAF
KISP 301740Z 3018/0118 09010KT P6SM SCT006 BKN015
      TEMPO 3018/3021 3SM -RA BR BKN006
     FM302100 08010KT 6SM BR SCT015 BKN025
     FM302300 06011KT 6SM -RA BR SCT012 OVC025
     FM010400 03012KT 5SM -RA OVC012
     FM010600 02012KT 3SM -RA OVC008
     FM011200 02012G19KT 2SM RA BR OVC006=



000
FTUS41 KOKX 301700
TAFBDR
TAF
KBDR 301740Z 3018/0118 08008KT P6SM OVC012
      TEMPO 3018/3020 -RA
     FM302000 08010KT 6SM BR SCT015 BKN025
     FM302300 06011KT 6SM -RA BR SCT012 OVC025
     FM010400 06012KT 5SM -RA BR OVC012
     FM011300 03013G19KT 3SM -RA BR OVC009=



000
FTUS41 KOKX 301700
TAFLGA
TAF
KLGA 301740Z 3018/0118 08010KT P6SM SCT015 SCT025 BKN060
      TEMPO 3018/3020 BKN015
     FM010200 05011KT P6SM SCT015 BKN025
     FM010700 02013KT P6SM OVC015
     FM011400 03015G20KT P6SM OVC012=



000
FTUS41 KOKX 301400 AAA
TAFISP
TAF AMD
KISP 301440Z 3015/0112 04007KT 5SM -RA BR OVC004
     FM301600 08007KT 6SM -RA BR OVC007
     FM301800 10010KT P6SM SCT015 BKN080
     FM010300 06012KT P6SM OVC015=



000
FTUS41 KOKX 301400 AAA
TAFBDR
TAF AMD
KBDR 301440Z 3015/0112 08008KT P6SM OVC012
      TEMPO 3017/3019 SCT012 BKN025
     FM301900 08010KT P6SM SCT012 OVC080
     FM010400 06013KT P6SM OVC015=



000
FTUS41 KOKX 301400 AAB
TAFTEB
TAF AMD
KTEB 301440Z 3015/0112 09005KT P6SM SCT020 BKN060
      TEMPO 3016/3019 BKN020
     FM301900 12006KT P6SM SCT030 BKN080
     FM010400 05009KT P6SM OVC012=



000
FTUS41 KOKX 301400 AAA
TAFSWF
TAF AMD
KSWF 301440Z 3015/0118 12006KT 4SM BR BKN015
      TEMPO 3016/3017 6SM BR SCT015 BKN025
     FM301700 12007KT P6SM SCT015 BKN035
     FM301900 11007KT P6SM BKN035
     FM010300 07003KT P6SM SCT045
     FM010800 08006KT 3SM BR BKN008
     FM011400 06008KT 6SM BR OVC012
      AMD NOT SKED=



000
FTUS41 KOKX 301400 AAD
TAFGON
TAF AMD
KGON 301419Z 3014/0112 05007KT P6SM -RA FEW008 SCT015 OVC080
      TEMPO 3014/3018 BKN015
     FM301800 09010KT P6SM SCT035 BKN100
     FM010400 03012KT P6SM BKN008=



000
FTUS41 KOKX 301400 CCA
TAFLGA
TAF COR
KLGA 301404Z 3014/0112 06012KT P6SM VCSH SCT020 BKN050
      TEMPO 3015/3018 BKN020
     FM301800 08013KT P6SM SCT030 BKN080
     FM010200 05012KT P6SM OVC012=



000
FTUS41 KOKX 301400 AAA
TAFEWR
TAF AMD
KEWR 301403Z 3014/0118 08006KT P6SM SCT020 BKN070
      TEMPO 3016/3019 BKN020
     FM302000 12006KT P6SM SCT030 BKN080
     FM010400 05009KT P6SM OVC012=



000
FTUS41 KOKX 301400 AAC
TAFGON
TAF AMD
KGON 301402Z 3014/0112 05007KT P6SM -RA FEW008 SCT020 OVC080
      TEMPO 3015/3018 BKN020
     FM301800 09010KT P6SM SCT035 BKN100
     FM010400 03012KT P6SM BKN008=



000
FTUS41 KOKX 301300 AAC
TAFLGA
TAF AMD
KLGA 301355Z 3014/0112 06012KT P6SM SCT020 BKN050
      TEMPO 3015/3018 BKN020
     FM301800 08013KT P6SM SCT030 BKN080
     FM010200 05012KT P6SM OVC012=



000
FTUS41 KOKX 301300 AAA
TAFJFK
TAF AMD
KJFK 301355Z 3014/0118 10009KT P6SM SCT020 BKN050
      TEMPO 3015/3018 BKN020
     FM301800 09006KT P6SM SCT030 BKN080
     FM010200 05010KT P6SM OVC012
     FM011300 03012G18KT P6SM OVC012=



000
FTUS41 KOKX 301300 AAB
TAFLGA
TAF AMD
KLGA 301341Z 3014/0112 06012KT P6SM SCT020 OVC040
      TEMPO 3014/3015 BKN020
     FM301500 07012KT P6SM BKN025
     FM301730 08013KT P6SM SCT030 BKN080
     FM010200 05012KT P6SM OVC012=



000
FTUS41 KOKX 301200 AAA
TAFLGA
TAF AMD
KLGA 301253Z 3013/0112 06006KT 6SM BR VCSH FEW007 BKN020
     FM301330 07007KT P6SM BKN015
     FM301500 07008KT P6SM BKN025
     FM301730 08008KT P6SM SCT030 BKN080
     FM010200 05012KT P6SM OVC012=



000
FTUS41 KOKX 301200 AAA
TAFTEB
TAF AMD
KTEB 301250Z 3013/0112 09005KT P6SM SCT015 BKN025
      TEMPO 3015/3017 BKN015
     FM301700 11006KT P6SM BKN025
     FM301930 12006KT P6SM SCT030 BKN080
     FM010400 05009KT P6SM OVC012=



000
FTUS41 KOKX 301200 AAB
TAFGON
TAF AMD
KGON 301228Z 3012/0112 05005KT P6SM -RA BKN008 OVC015
     FM301500 08008KT P6SM -RA SCT015 BKN025
     FM301700 09010KT P6SM SCT035 BKN100
     FM010400 03012KT P6SM BKN008=



000
FTUS41 KOKX 301200 AAA
TAFGON
TAF AMD
KGON 301220Z 3012/0112 05005KT P6SM -RA SCT008 OVC015
     FM301500 08008KT P6SM -RA SCT015 BKN025
     FM301700 09010KT P6SM SCT035 BKN100
     FM010400 03012KT P6SM BKN008=



000
FTUS41 KOKX 301100
TAFSWF
TAF
KSWF 301124Z 3012/0118 00000KT 5SM BR BKN010
     FM301300 12004KT P6SM BKN015
     FM301700 12006KT P6SM BKN035
     FM301900 11007KT P6SM BKN035
     FM010300 07003KT P6SM SCT045
     FM010800 08006KT 3SM BR BKN008
     FM011400 06008KT 6SM BR OVC012
      AMD NOT SKED=



000
FTUS41 KOKX 301100
TAFLGA
TAF
KLGA 301124Z 3012/0112 06006KT 6SM BR VCSH BKN007
     FM301330 07007KT P6SM BKN015
     FM301500 07008KT P6SM BKN025
     FM301730 08008KT P6SM SCT030 BKN080
     FM010200 05012KT P6SM OVC012=



000
FTUS41 KOKX 301100
TAFEWR
TAF
KEWR 301124Z 3012/0118 VRB03KT P6SM OVC070
     FM301300 08006KT P6SM BKN018
     FM302000 12006KT P6SM SCT030 BKN080
     FM010400 05009KT P6SM OVC012=



000
FTUS41 KOKX 301100
TAFJFK
TAF
KJFK 301124Z 3012/0118 VRB03KT P6SM FEW008 OVC070
     FM301300 10008KT P6SM BKN010
     FM301500 11006KT P6SM BKN025
     FM301730 09006KT P6SM SCT030 BKN080
     FM010200 05010KT P6SM OVC012
     FM011300 03012G18KT P6SM OVC012=



000
FTUS41 KOKX 301100
TAFISP
TAF
KISP 301124Z 3012/0112 08007KT 5SM -RA BR OVC004
     FM301300 09007KT 6SM -RA BR OVC007
     FM301630 10009KT P6SM OVC015
     FM301800 10010KT P6SM SCT015 BKN080
     FM010300 06012KT P6SM OVC015=



000
FTUS41 KOKX 301100
TAFGON
TAF
KGON 301124Z 3012/0112 06006KT 6SM BR OVC008
     FM301300 05005KT P6SM -RA SCT008 OVC015
     FM301500 08008KT P6SM -RA SCT015 BKN025
     FM301700 09010KT P6SM SCT035 BKN100
     FM010400 03012KT P6SM BKN008=



000
FTUS41 KOKX 301100
TAFTEB
TAF
KTEB 301124Z 3012/0112 00000KT P6SM BKN007 OVC070
     FM301300 08005KT P6SM BKN015
     FM301700 11006KT P6SM BKN025
     FM301930 12006KT P6SM SCT030 BKN080
     FM010400 05009KT P6SM OVC012=



000
FTUS41 KOKX 301100
TAFBDR
TAF
KBDR 301124Z 3012/0112 08008KT P6SM OVC008
     FM301400 08008KT P6SM OVC015
     FM301900 08010KT P6SM OVC080
     FM010400 06013KT P6SM OVC015=



000
FTUS41 KOKX 301000 AAB
TAFISP
TAF AMD
KISP 301050Z 3011/0106 08007KT 5SM -RA BR OVC004
     FM301300 09007KT 6SM -RA BR OVC008
     FM301630 10009KT P6SM OVC015
     FM301800 10010KT P6SM SCT015 BKN080
     FM010300 06012KT P6SM BKN015=



000
FTUS41 KOKX 301000 AAC
TAFLGA
TAF AMD
KLGA 301043Z 3011/0106 06006KT P6SM BKN007
     FM301400 07007KT P6SM BKN015
     FM301500 07008KT P6SM BKN025
     FM301730 08008KT P6SM SCT030 BKN080
     FM010200 05012KT P6SM BKN012=



000
FTUS41 KOKX 301000 AAB
TAFLGA
TAF AMD
KLGA 301020Z 3010/0106 06006KT P6SM SCT008 OVC060
      TEMPO 3011/3014 BKN008
     FM301400 07007KT P6SM BKN015
     FM301500 07008KT P6SM BKN025
     FM301730 08008KT P6SM SCT030 BKN080
     FM010200 05012KT P6SM BKN012=



000
FTUS41 KOKX 300800 AAA
TAFJFK
TAF AMD
KJFK 300820Z 3008/0112 VRB03KT P6SM OVC070
     FM301300 10008KT P6SM BKN015
     FM301500 11006KT P6SM BKN025
     FM301730 09006KT P6SM SCT030 BKN080
     FM010200 05008KT P6SM BKN012=



000
FTUS41 KOKX 300800 AAA
TAFEWR
TAF AMD
KEWR 300820Z 3008/0112 VRB03KT P6SM OVC070
     FM301400 08006KT P6SM BKN020
     FM302000 12006KT P6SM SCT030 BKN080
     FM010400 05009KT P6SM BKN012=



000
FTUS41 KOKX 300800 AAA
TAFTEB
TAF AMD
KTEB 300820Z 3008/0106 00000KT P6SM OVC070
     FM301400 08005KT P6SM BKN015
     FM301700 11006KT P6SM BKN025
     FM302000 12006KT P6SM SCT030 BKN080
     FM010400 05009KT P6SM BKN012=



000
FTUS41 KOKX 300800 AAA
TAFSWF
TAF AMD
KSWF 300820Z 3008/0112 00000KT 6SM BR FEW015 OVC100
     FM301100 00000KT 5SM BR BKN007
     FM301300 12004KT P6SM BKN015
     FM301700 12006KT P6SM BKN035
     FM302000 11007KT P6SM BKN035
     FM010300 07003KT P6SM SCT045
     FM010800 04003KT 4SM BR BKN045
      AMD NOT SKED=



000
FTUS41 KOKX 300800 AAA
TAFGON
TAF AMD
KGON 300820Z 3008/0106 06006KT 6SM BR BKN008 OVC015
     FM301300 05005KT P6SM -RA SCT007 BKN015
     FM301500 08008KT P6SM -RA SCT015 BKN025
     FM301700 09010KT P6SM SCT035 BKN100
     FM010400 03007KT P6SM BKN008=



000
FTUS41 KOKX 300800 AAA
TAFISP
TAF AMD
KISP 300820Z 3008/0106 VRB03KT 6SM BR FEW007 OVC090
     FM301000 08004KT 5SM -RA BR BKN007
     FM301200 08009KT P6SM BKN080
     FM010400 06012KT P6SM BKN015=



000
FTUS41 KOKX 300800 AAA
TAFLGA
TAF AMD
KLGA 300820Z 3008/0106 VRB04KT P6SM OVC070
     FM301100 06006KT P6SM SCT010 OVC060
      TEMPO 3012/3014 BKN010
     FM301400 07007KT P6SM BKN015
     FM301500 07008KT P6SM BKN025
     FM301730 08008KT P6SM SCT030 BKN080
     FM010200 05012KT P6SM BKN012=



000
FTUS41 KOKX 300800 AAA
TAFBDR
TAF AMD
KBDR 300820Z 3008/0106 08008KT P6SM OVC008
     FM301400 08010KT P6SM OVC080
     FM010400 06013KT P6SM BKN015=



000
FTUS41 KOKX 300500 CCA
TAFGON
TAF COR
KGON 300540Z 3006/0106 06006KT 6SM BR BKN006 OVC015
     FM301300 05005KT P6SM -RA SCT007 BKN015
     FM301500 08008KT P6SM -RA SCT015 BKN025
     FM301700 09010KT P6SM SCT035 BKN100
     FM010400 03007KT P6SM BKN008=



000
FTUS41 KOKX 300500
TAFBDR
TAF
KBDR 300539Z 3006/0106 08008KT P6SM BKN006 OVC080
     FM301200 08010KT P6SM -RA BKN015
     FM302200 09008KT P6SM BKN035
     FM010400 06010KT P6SM BKN015=



000
FTUS41 KOKX 300500
TAFTEB
TAF
KTEB 300539Z 3006/0106 00000KT P6SM OVC100
     FM301500 10005KT P6SM FEW025 OVC100
     FM301900 12006KT P6SM BKN025
     FM302200 12005KT P6SM BKN015
     FM010300 05012KT P6SM BKN012=



000
FTUS41 KOKX 300500
TAFGON
TAF
KGON 300539Z 3006/0106 06006KT 6SM BR BKN006 OVC015
     FM301300 05005KT P6SM SCT007 BKN015
     FM301500 08008KT P6SM SCT015 BKN025
     FM301700 09010KT P6SM SCT035 BKN100
     FM010400 03007KT P6SM BKN008=



000
FTUS41 KOKX 300500
TAFSWF
TAF
KSWF 300539Z 3006/0112 00000KT 6SM BR FEW015 OVC100
     FM301200 11004KT P6SM SCT025 OVC100
      TEMPO 3012/3013 3SM BR BKN025
     FM302000 11007KT P6SM BKN035
     FM010300 07003KT P6SM SCT045
     FM010800 04003KT 4SM BR BKN045
      AMD NOT SKED=



000
FTUS41 KOKX 300500
TAFISP
TAF
KISP 300539Z 3006/0106 VRB03KT P6SM SCT007 OVC080
      TEMPO 3008/3010 -RA BKN007
     FM301100 08007KT P6SM SCT035 BKN080
     FM301800 08010KT P6SM -RA BKN025
     FM302200 06008KT P6SM BKN015=



000
FTUS41 KOKX 300500
TAFJFK
TAF
KJFK 300539Z 3006/0112 24006KT P6SM OVC090
     FM301000 08006KT P6SM FEW025 BKN090
     FM301900 12007KT P6SM BKN025
     FM302200 12005KT P6SM BKN015
     FM010200 05008KT P6SM BKN012=



000
FTUS41 KOKX 300500
TAFEWR
TAF
KEWR 300539Z 3006/0112 23004KT P6SM OVC100
     FM301000 08006KT P6SM FEW025 OVC100
     FM301900 12006KT P6SM BKN025
     FM302200 12005KT P6SM BKN015
     FM010300 05012KT P6SM BKN012=



000
FTUS41 KOKX 300500
TAFLGA
TAF
KLGA 300539Z 3006/0106 23005KT P6SM OVC090
     FM300900 06008KT P6SM FEW025 OVC090
     FM301900 07007KT P6SM BKN025
     FM302200 09005KT P6SM BKN015
     FM010200 05012KT P6SM BKN012=



000
FTUS41 KOKX 300200 AAB
TAFGON
TAF AMD
KGON 300228Z 3002/3024 10006KT 6SM BR BKN006 BKN015
     FM301300 05005KT P6SM SCT007 BKN015
     FM301500 08008KT P6SM SCT015 BKN025
     FM301700 09010KT P6SM SCT035 BKN100=



000
FTUS41 KOKX 300200 AAA
TAFBDR
TAF AMD
KBDR 300228Z 3002/3024 VRB04KT P6SM OVC150
     FM300600 08007KT P6SM FEW007 SCT015 OVC100
      TEMPO 3009/3013 BKN015
     FM301600 10010KT P6SM SCT035 BKN100=



000
FTUS41 KOKX 300200 AAA
TAFJFK
TAF AMD
KJFK 300228Z 3002/0106 21005KT P6SM OVC150
     FM300800 08007KT P6SM FEW025 OVC100
     FM301600 09011KT P6SM SCT040 BKN100
     FM010100 05005KT P6SM FEW030 BKN100=



000
FTUS41 KOKX 300200 AAA
TAFLGA
TAF AMD
KLGA 300228Z 3002/3024 22005KT P6SM OVC150
     FM300800 06008KT P6SM FEW025 OVC100
     FM301600 09010KT P6SM SCT040 BKN100=



000
FTUS41 KOKX 300200 AAA
TAFISP
TAF AMD
KISP 300228Z 3002/3024 VRB04KT P6SM FEW007 OVC120
     FM300600 08006KT P6SM SCT007 SCT015 OVC100
      TEMPO 3009/3013 BKN015
     FM301600 09010KT P6SM SCT035 BKN100=



000
FTUS41 KOKX 300200 AAA
TAFEWR
TAF AMD
KEWR 300228Z 3002/0106 23004KT P6SM OVC150
     FM300900 08006KT P6SM FEW025 OVC100
     FM301600 10008KT P6SM SCT040 BKN100
     FM010100 05005KT P6SM FEW030 BKN100=



000
FTUS41 KOKX 300200 AAA
TAFTEB
TAF AMD
KTEB 300228Z 3002/3024 VRB04KT P6SM OVC150
     FM300900 08005KT P6SM FEW025 OVC100
     FM301600 10007KT P6SM SCT040 BKN100=



000
FTUS41 KOKX 300200 AAA
TAFSWF
TAF AMD
KSWF 300228Z 3002/0106 VRB03KT P6SM OVC100
     FM300700 10004KT P6SM SCT025 OVC100
      TEMPO 3011/3014 BKN025
     FM301500 11006KT P6SM SCT040 SCT100
     FM010000 VRB05KT P6SM FEW030 BKN100
      AMD NOT SKED=



000
FTUS41 KOKX 300100 AAA
TAFGON
TAF AMD
KGON 300108Z 3001/3024 10006KT P6SM BKN006 OVC100
     FM301300 05005KT P6SM SCT007 BKN015
     FM301500 08008KT P6SM SCT015 BKN025
     FM301700 09010KT P6SM SCT035 BKN100=



000
FTUS41 KOKX 292300
TAFSWF
TAF
KSWF 292340Z 3000/0106 VRB03KT P6SM OVC100
     FM301500 11006KT P6SM SCT040 SCT100
     FM010000 VRB05KT P6SM FEW030 BKN100
      AMD NOT SKED=



000
FTUS41 KOKX 292300
TAFTEB
TAF
KTEB 292340Z 3000/3024 VRB04KT P6SM OVC150
     FM301100 08005KT P6SM FEW025 OVC100
     FM301600 10007KT P6SM SCT040 BKN100=



000
FTUS41 KOKX 292300
TAFEWR
TAF
KEWR 292340Z 3000/0106 20005KT P6SM OVC150
     FM300100 VRB04KT P6SM OVC150
     FM301100 08006KT P6SM FEW025 OVC100
     FM301600 10008KT P6SM SCT040 BKN100
     FM010100 05005KT P6SM FEW030 BKN100=



000
FTUS41 KOKX 292300
TAFISP
TAF
KISP 292340Z 3000/3024 19005KT P6SM SCT120 BKN200
     FM300100 VRB04KT P6SM OVC120
     FM300700 08006KT P6SM SCT015 OVC100
      TEMPO 3010/3014 BKN015
     FM301600 09010KT P6SM SCT035 BKN100=



000
FTUS41 KOKX 292300
TAFJFK
TAF
KJFK 292340Z 3000/0106 18005KT P6SM OVC150
     FM301000 08007KT P6SM FEW025 OVC100
     FM301600 09011KT P6SM SCT040 BKN100
     FM010100 05005KT P6SM FEW030 BKN100=



000
FTUS41 KOKX 292300
TAFGON
TAF
KGON 292340Z 3000/3024 VRB04KT 5SM BR OVC100
     FM300200 05006KT 6SM BR SCT015 OVC100
     FM300600 08006KT P6SM SCT007 BKN015 OVC100
     FM301300 08008KT P6SM SCT015 BKN025
     FM301700 09010KT P6SM SCT035 BKN100=



000
FTUS41 KOKX 292300
TAFBDR
TAF
KBDR 292340Z 3000/3024 17005KT P6SM SCT120 BKN200
     FM300100 VRB04KT P6SM OVC150
     FM300700 08007KT P6SM SCT015 OVC100
      TEMPO 3010/3014 BKN015
     FM301600 10010KT P6SM SCT035 BKN100=



000
FTUS41 KOKX 292300
TAFLGA
TAF
KLGA 292340Z 3000/3024 19005KT P6SM OVC150
     FM300100 VRB05KT P6SM OVC150
     FM301000 06010KT P6SM FEW025 OVC100
     FM301600 09010KT P6SM SCT040 BKN100=



000
FTUS41 KOKX 292200 AAC
TAFEWR
TAF AMD
KEWR 292205Z 2922/3024 16007KT P6SM OVC150
     FM300000 VRB04KT P6SM OVC150
     FM301100 08006KT P6SM SCT040 OVC100
     FM301800 10009KT P6SM SCT040 BKN100=



000
FTUS41 KOKX 292200 AAB
TAFTEB
TAF AMD
KTEB 292204Z 2922/3018 18006KT P6SM OVC150
     FM300000 VRB04KT P6SM OVC150
     FM301100 08005KT P6SM SCT040 OVC100=



000
FTUS41 KOKX 292200 AAC
TAFLGA
TAF AMD
KLGA 292203Z 2922/3018 18006KT P6SM OVC150
     FM300000 VRB05KT P6SM OVC150
     FM301000 08008KT P6SM SCT040 OVC100=



000
FTUS41 KOKX 292100 AAB
TAFEWR
TAF AMD
KEWR 292146Z 2922/3024 VRB04KT P6SM OVC150
      TEMPO 2922/2924 15006KT
     FM301100 08006KT P6SM SCT040 OVC100
     FM301800 10009KT P6SM SCT040 BKN100=



000
FTUS41 KOKX 292100 AAB
TAFLGA
TAF AMD
KLGA 292131Z 2922/3018 06004KT P6SM OVC150
      TEMPO 2922/2924 18006KT
     FM300000 VRB05KT P6SM OVC150
     FM301000 08008KT P6SM SCT040 OVC100=



000
FTUS41 KOKX 292000 AAB
TAFJFK
TAF AMD
KJFK 292047Z 2921/3024 19012KT P6SM FEW100 BKN200
     FM300100 VRB04KT P6SM OVC150
     FM301000 08007KT P6SM SCT040 OVC100
     FM301800 09011KT P6SM SCT040 BKN100=



000
FTUS41 KOKX 292000 AAA
TAFISP
TAF AMD
KISP 292034Z 2921/3018 19007KT P6SM SCT120 BKN200
     FM300100 VRB04KT P6SM OVC120
     FM300700 08006KT P6SM BKN040 OVC100=



000
FTUS41 KOKX 292000 AAA
TAFEWR
TAF AMD
KEWR 292034Z 2921/3024 VRB04KT P6SM OVC150
     FM301100 08006KT P6SM SCT040 OVC100
     FM301800 10009KT P6SM SCT040 BKN100=



000
FTUS41 KOKX 292000 AAA
TAFJFK
TAF AMD
KJFK 292034Z 2921/3024 19007KT P6SM FEW100 BKN200
     FM300100 VRB04KT P6SM OVC150
     FM301000 08007KT P6SM SCT040 OVC100
     FM301800 09011KT P6SM SCT040 BKN100=



000
FTUS41 KOKX 292000 AAA
TAFBDR
TAF AMD
KBDR 292034Z 2921/3018 VRB04KT P6SM OVC150
     FM300700 08007KT P6SM BKN040 OVC100=



000
FTUS41 KOKX 292000 AAA
TAFTEB
TAF AMD
KTEB 292034Z 2921/3018 VRB04KT P6SM OVC150
     FM301100 08005KT P6SM SCT040 OVC100=



000
FTUS41 KOKX 292000 AAA
TAFGON
TAF AMD
KGON 292034Z 2921/3018 18006KT 6SM BR SCT150 BKN200
     FM300000 VRB04KT 4SM BR OVC100
     FM300400 05006KT 6SM BR SCT015 OVC100
     FM301400 08008KT P6SM FEW020 BKN040=



000
FTUS41 KOKX 292000 AAA
TAFSWF
TAF AMD
KSWF 292034Z 2921/3024 VRB03KT P6SM OVC100
     FM301500 11006KT P6SM SCT040 SCT100
      AMD NOT SKED=



000
FTUS41 KOKX 292000 AAA
TAFLGA
TAF AMD
KLGA 292034Z 2921/3018 VRB04KT P6SM OVC150
     FM301000 08008KT P6SM SCT040 OVC100=



000
FTUS41 KOKX 291700
TAFSWF
TAF
KSWF 291736Z 2918/3024 VRB03KT P6SM OVC100
     FM301500 11006KT P6SM SCT040 SCT100
      AMD NOT SKED=



000
FTUS41 KOKX 291700
TAFISP
TAF
KISP 291736Z 2918/3018 19007KT P6SM SCT120 BKN200
     FM300100 VRB04KT P6SM OVC100
     FM300700 08006KT P6SM BKN040 OVC100=



000
FTUS41 KOKX 291700
TAFJFK
TAF
KJFK 291736Z 2918/3024 18008KT P6SM FEW100 BKN200
     FM300100 VRB04KT P6SM OVC100
     FM301000 08007KT P6SM SCT040 OVC100
     FM301800 09011KT P6SM SCT040 BKN100=



000
FTUS41 KOKX 291700
TAFTEB
TAF
KTEB 291736Z 2918/3018 VRB04KT P6SM BKN150
     FM301100 08005KT P6SM SCT040 OVC100=



000
FTUS41 KOKX 291700
TAFBDR
TAF
KBDR 291736Z 2918/3018 VRB04KT P6SM BKN150
     FM300700 08007KT P6SM BKN040 OVC100=



000
FTUS41 KOKX 291700
TAFEWR
TAF
KEWR 291736Z 2918/3024 VRB04KT P6SM BKN150
     FM301100 08006KT P6SM SCT040 OVC100
     FM301800 10009KT P6SM SCT040 BKN100=



000
FTUS41 KOKX 291700
TAFLGA
TAF
KLGA 291736Z 2918/3018 05005KT P6SM FEW100 BKN200
     FM300100 VRB04KT P6SM OVC100
     FM301000 08008KT P6SM SCT040 OVC100=



000
FTUS41 KOKX 291700
TAFGON
TAF
KGON 291736Z 2918/3018 17007KT P6SM SCT150 BKN200
     FM300100 VRB04KT P6SM OVC100
     FM300400 05006KT 6SM BR SCT015 OVC100
     FM301400 08008KT P6SM FEW020 BKN040=



000
FTUS41 KOKX 291400 AAA
TAFSWF
TAF AMD
KSWF 291433Z 2915/3018 VRB03KT P6SM FEW050 SCT150 BKN200
     FM300100 VRB02KT P6SM SCT040 OVC100
     FM301400 09007KT P6SM BKN035 OVC050
      AMD NOT SKED=



000
FTUS41 KOKX 291400 AAA
TAFEWR
TAF AMD
KEWR 291433Z 2915/3018 25004KT P6SM FEW050 SCT150 BKN200
     FM300100 VRB04KT P6SM SCT040 OVC100
     FM301400 09008KT P6SM BKN035 OVC050=



000
FTUS41 KOKX 291400 AAA
TAFLGA
TAF AMD
KLGA 291433Z 2915/3012 VRB03KT P6SM SCT150 BKN200
     FM292000 18007KT P6SM FEW050 BKN150
     FM300100 VRB04KT P6SM SCT040 OVC100=



000
FTUS41 KOKX 291400 AAA
TAFBDR
TAF AMD
KBDR 291433Z 2915/3012 VRB04KT P6SM FEW050 SCT150 BKN200
     FM300100 VRB03KT P6SM SCT040 OVC100
     FM300900 VRB03KT 6SM BR SCT015 OVC100=



000
FTUS41 KOKX 291400 AAA
TAFTEB
TAF AMD
KTEB 291433Z 2915/3012 VRB04KT P6SM FEW050 SCT150 BKN200
     FM300100 VRB02KT P6SM SCT040 OVC100=



000
FTUS41 KOKX 291400 AAA
TAFJFK
TAF AMD
KJFK 291433Z 2915/3018 VRB04KT P6SM SCT150 BKN200
     FM291800 18010KT P6SM FEW050 BKN150
     FM300100 VRB04KT P6SM SCT040 OVC100
     FM301400 10008KT P6SM -RA BKN030 OVC050=



000
FTUS41 KOKX 291400 AAA
TAFGON
TAF AMD
KGON 291433Z 2915/3012 VRB03KT P6SM BKN005
     FM291600 VRB04KT P6SM FEW007 SCT150 BKN200
     FM291800 16007KT P6SM SCT150 BKN200
     FM300100 VRB04KT P6SM SCT040 OVC100
     FM301000 05005KT 6SM BR SCT015 OVC100=



000
FTUS41 KOKX 291400 AAA
TAFISP
TAF AMD
KISP 291433Z 2915/3012 VRB04KT P6SM SCT150 BKN200
     FM291800 19007KT P6SM FEW050 SCT150 BKN200
     FM300100 VRB04KT P6SM SCT040 OVC100
     FM300900 VRB03KT 6SM BR SCT015 OVC100=



000
FTUS41 KOKX 291100
TAFBDR
TAF
KBDR 291128Z 2912/3012 VRB03KT P6SM FEW150 BKN250
     FM291700 12006KT P6SM BKN150 BKN250
     FM291900 16008KT P6SM FEW050 BKN150
     FM300100 VRB03KT P6SM SCT040 OVC100
     FM300900 VRB03KT 6SM BR SCT015 OVC100=



000
FTUS41 KOKX 291100
TAFISP
TAF
KISP 291128Z 2912/3012 VRB03KT P6SM BKN150 BKN250
     FM291500 23005KT P6SM BKN150 BKN250
     FM291800 19008KT P6SM FEW050 BKN150
     FM300100 VRB04KT P6SM SCT040 OVC100
     FM300900 VRB03KT 6SM BR SCT015 OVC100=



000
FTUS41 KOKX 291100
TAFJFK
TAF
KJFK 291128Z 2912/3018 24005KT P6SM FEW150 BKN250
     FM291600 22008KT P6SM BKN150 BKN250
     FM291800 18010KT P6SM FEW050 BKN150
     FM300100 VRB04KT P6SM SCT040 OVC100
     FM301400 10008KT P6SM -RA BKN030 OVC050=



000
FTUS41 KOKX 291100
TAFTEB
TAF
KTEB 291128Z 2912/3012 VRB02KT P6SM FEW150 BKN250
     FM291700 24005KT P6SM BKN150 BKN250
     FM292000 19008KT P6SM FEW050 BKN150
     FM300100 VRB02KT P6SM SCT040 OVC100=



000
FTUS41 KOKX 291100
TAFGON
TAF
KGON 291128Z 2912/3012 VRB02KT P6SM BKN150 BKN250
     FM291700 18008KT P6SM FEW050 BKN150
     FM300100 VRB04KT P6SM SCT040 OVC100
     FM301000 05005KT 6SM BR SCT015 OVC100=



000
FTUS41 KOKX 291100
TAFEWR
TAF
KEWR 291128Z 2912/3018 26005KT P6SM BKN150 BKN250
     FM291900 16009KT P6SM FEW050 BKN150
     FM300100 VRB04KT P6SM SCT040 OVC100
     FM301400 09008KT P6SM BKN035 OVC050=



000
FTUS41 KOKX 291100
TAFSWF
TAF
KSWF 291128Z 2912/3018 VRB02KT P6SM FEW150 BKN250
     FM291700 22007KT P6SM FEW050 BKN150
     FM300100 VRB02KT P6SM SCT040 OVC100
     FM301400 09007KT P6SM BKN035 OVC050
      AMD NOT SKED=



000
FTUS41 KOKX 291100
TAFLGA
TAF
KLGA 291128Z 2912/3012 VRB03KT P6SM FEW150 BKN250
     FM291700 22006KT P6SM BKN150 BKN250
     FM291900 18008KT P6SM FEW050 BKN150
     FM300100 VRB04KT P6SM SCT040 OVC100=



000
FTUS41 KOKX 290800 AAA
TAFBDR
TAF AMD
KBDR 290830Z 2909/3006 VRB04KT P6SM BKN250
     FM291500 20007KT P6SM FEW050 BKN150=



000
FTUS41 KOKX 290800 AAB
TAFJFK
TAF AMD
KJFK 290830Z 2909/3012 23008KT P6SM FEW150 BKN250
     FM291600 19010KT P6SM FEW050 BKN150
     FM300100 21006KT P6SM SCT050 BKN120=



000
FTUS41 KOKX 290800 AAA
TAFTEB
TAF AMD
KTEB 290830Z 2909/3006 VRB02KT P6SM BKN250
     FM291700 23005KT P6SM FEW050 BKN150
     FM292000 17006KT P6SM FEW050 BKN150=



000
FTUS41 KOKX 290800 AAA
TAFEWR
TAF AMD
KEWR 290830Z 2909/3012 24005KT P6SM BKN250
     FM291700 23006KT P6SM FEW050 BKN150
     FM292000 15007KT P6SM FEW050 BKN150
     FM300000 20004KT P6SM SCT050 BKN120=



000
FTUS41 KOKX 290800 AAA
TAFSWF
TAF AMD
KSWF 290830Z 2909/3012 VRB02KT P6SM SCT120 BKN250
      TEMPO 2910/2912 5SM BR
     FM291800 24005KT P6SM FEW050 BKN150
     FM300000 VRB03KT P6SM SCT050 BKN120
      AMD NOT SKED=



000
FTUS41 KOKX 290800 AAA
TAFISP
TAF AMD
KISP 290830Z 2909/3006 21003KT P6SM BKN250
     FM291500 21005KT P6SM FEW050 BKN150
     FM291700 21008KT P6SM FEW050 BKN150=



000
FTUS41 KOKX 290800 AAA
TAFLGA
TAF AMD
KLGA 290830Z 2909/3006 21005KT P6SM BKN250
     FM291700 20008KT P6SM FEW050 BKN150
     FM291900 18009KT P6SM FEW050 BKN150=



000
FTUS41 KOKX 290800 AAA
TAFGON
TAF AMD
KGON 290830Z 2909/3006 VRB02KT 6SM BR BKN250
      TEMPO 2910/2912 2SM BR
     FM291200 VRB02KT P6SM BKN250
     FM291500 21008KT P6SM BKN250
     FM291700 21008KT P6SM FEW050 BKN250=



000
FTUS41 KOKX 290700 AAA
TAFJFK
TAF AMD
KJFK 290700Z 2907/3012 23008KT P6SM FEW150 BKN250
     FM291600 19010KT P6SM FEW050 BKN150
     FM300100 21006KT P6SM SCT050 BKN120=



000
FTUS41 KOKX 290500
TAFGON
TAF
KGON 290520Z 2906/3006 VRB03KT P6SM BKN250
     FM290800 VRB02KT 5SM BR BKN250
      TEMPO 2908/2912 2SM BR
     FM291200 VRB02KT P6SM BKN250
     FM291500 21008KT P6SM BKN250
     FM291700 21008KT P6SM FEW050 BKN250=



000
FTUS41 KOKX 290500
TAFLGA
TAF
KLGA 290520Z 2906/3006 21005KT P6SM BKN250
     FM291700 20008KT P6SM FEW050 BKN150
     FM291900 18009KT P6SM FEW050 BKN150=



000
FTUS41 KOKX 290500
TAFEWR
TAF
KEWR 290520Z 2906/3012 22007KT P6SM BKN250
     FM291700 23006KT P6SM FEW050 BKN150
     FM292000 15007KT P6SM FEW050 BKN150
     FM300000 20004KT P6SM SCT050 BKN120=



000
FTUS41 KOKX 290500
TAFISP
TAF
KISP 290520Z 2906/3006 21003KT P6SM BKN250
     FM291500 21005KT P6SM FEW050 BKN150
     FM291700 21008KT P6SM FEW050 BKN150=



000
FTUS41 KOKX 290500
TAFSWF
TAF
KSWF 290520Z 2906/3012 VRB02KT P6SM SCT120 BKN250
      TEMPO 2908/2912 5SM BR
     FM291800 24005KT P6SM FEW050 BKN150
     FM300000 VRB03KT P6SM SCT050 BKN120
      AMD NOT SKED=



000
FTUS41 KOKX 290500
TAFJFK
TAF
KJFK 290520Z 2906/3012 21005KT P6SM BKN250
     FM291600 19010KT P6SM FEW050 BKN150
     FM300100 21006KT P6SM SCT050 BKN120=



000
FTUS41 KOKX 290500
TAFBDR
TAF
KBDR 290520Z 2906/3006 21004KT P6SM BKN250
     FM291500 20007KT P6SM FEW050 BKN150=



000
FTUS41 KOKX 290500
TAFTEB
TAF
KTEB 290520Z 2906/3006 VRB02KT P6SM BKN250
     FM291700 23005KT P6SM FEW050 BKN150
     FM292000 17006KT P6SM FEW050 BKN150=



000
FTUS41 KOKX 290200 AAA
TAFISP
TAF AMD
KISP 290239Z 2903/2924 21003KT P6SM BKN250
     FM291500 21005KT P6SM FEW050 BKN150
     FM291700 21008KT P6SM FEW050 BKN150=



000
FTUS41 KOKX 290200 AAA
TAFBDR
TAF AMD
KBDR 290239Z 2903/2924 21004KT P6SM BKN250
     FM291500 20007KT P6SM FEW050 BKN150=



000
FTUS41 KOKX 290200 AAA
TAFJFK
TAF AMD
KJFK 290239Z 2903/3006 21005KT P6SM BKN250
     FM291600 19010KT P6SM FEW050 BKN150
     FM300100 21006KT P6SM SCT050 BKN120=



000
FTUS41 KOKX 290200 AAA
TAFEWR
TAF AMD
KEWR 290239Z 2903/3006 20004KT P6SM BKN250
     FM291700 23006KT P6SM FEW050 BKN150
     FM292000 15007KT P6SM FEW050 BKN150
     FM300000 20004KT P6SM SCT050 BKN120=



000
FTUS41 KOKX 290200 AAA
TAFGON
TAF AMD
KGON 290239Z 2903/2924 VRB03KT P6SM BKN250
     FM290800 VRB02KT 5SM BR BKN250
      TEMPO 2908/2912 2SM BR
     FM291200 VRB02KT P6SM BKN250
     FM291500 21008KT P6SM BKN250
     FM291700 21008KT P6SM FEW050 BKN250=



000
FTUS41 KOKX 290200 AAA
TAFLGA
TAF AMD
KLGA 290239Z 2903/2924 21005KT P6SM BKN250
     FM291700 20008KT P6SM FEW050 BKN150
     FM291900 18009KT P6SM FEW050 BKN150=



000
FTUS41 KOKX 290200 AAA
TAFSWF
TAF AMD
KSWF 290239Z 2903/3006 VRB02KT P6SM SCT120 BKN250
      TEMPO 2908/2912 5SM BR
     FM291800 24005KT P6SM FEW050 BKN150
     FM300000 VRB03KT P6SM SCT050 BKN120
      AMD NOT SKED=



000
FTUS41 KOKX 290200 AAA
TAFTEB
TAF AMD
KTEB 290239Z 2903/2924 VRB02KT P6SM BKN250
     FM291700 23005KT P6SM FEW050 BKN150
     FM292000 17006KT P6SM FEW050 BKN150=



000
FTUS41 KOKX 282300
TAFBDR
TAF
KBDR 282324Z 2900/2924 21007KT P6SM BKN250
     FM290100 VRB03KT P6SM BKN250
     FM291500 20007KT P6SM FEW050 BKN150=



000
FTUS41 KOKX 282300
TAFISP
TAF
KISP 282324Z 2900/2924 22006KT P6SM BKN250
     FM290100 VRB03KT P6SM BKN250
     FM291500 21005KT P6SM FEW050 BKN150
     FM291700 21008KT P6SM FEW050 BKN150=



000
FTUS41 KOKX 282300
TAFSWF
TAF
KSWF 282324Z 2900/3006 VRB02KT P6SM SCT120 BKN250
      TEMPO 2908/2912 5SM BR
     FM291800 24005KT P6SM FEW050 BKN150
     FM300000 VRB03KT P6SM SCT050 BKN120
      AMD NOT SKED=



000
FTUS41 KOKX 282300
TAFJFK
TAF
KJFK 282324Z 2900/3006 19008KT P6SM BKN250
     FM290200 22005KT P6SM BKN250
     FM291600 19010KT P6SM FEW050 BKN150
     FM300100 21006KT P6SM SCT050 BKN120=



000
FTUS41 KOKX 282300
TAFGON
TAF
KGON 282324Z 2900/2924 VRB02KT P6SM BKN250
     FM290800 VRB02KT 5SM BR BKN250
      TEMPO 2908/2912 2SM BR
     FM291200 VRB02KT P6SM BKN250
     FM291500 21008KT P6SM BKN250
     FM291700 21008KT P6SM FEW050 BKN250=



000
FTUS41 KOKX 282300
TAFEWR
TAF
KEWR 282324Z 2900/3006 17005KT P6SM BKN250
     FM290100 VRB03KT P6SM BKN250
     FM291700 23006KT P6SM FEW050 BKN150
     FM292000 15007KT P6SM FEW050 BKN150
     FM300000 20004KT P6SM SCT050 BKN120=



000
FTUS41 KOKX 282300
TAFLGA
TAF
KLGA 282324Z 2900/2924 19007KT P6SM BKN250
     FM290200 VRB03KT P6SM BKN250
     FM291700 20008KT P6SM FEW050 BKN150
     FM291900 18009KT P6SM FEW050 BKN150=



000
FTUS41 KOKX 282300
TAFTEB
TAF
KTEB 282324Z 2900/2924 VRB02KT P6SM BKN250
     FM291700 23005KT P6SM FEW050 BKN150
     FM292000 17006KT P6SM FEW050 BKN150=



000
FTUS41 KOKX 282200 AAB
TAFEWR
TAF AMD
KEWR 282221Z 2822/2924 16007KT P6SM SCT250
     FM290100 VRB03KT P6SM BKN250
     FM291700 23006KT P6SM FEW050 BKN150=



000
FTUS41 KOKX 282000 AAA
TAFGON
TAF AMD
KGON 282030Z 2821/2918 21007KT P6SM SCT250
     FM282300 VRB02KT P6SM SCT250
     FM290800 VRB02KT 5SM BR SCT250
      TEMPO 2908/2912 2SM BR
     FM291200 VRB02KT P6SM SCT250
     FM291500 21008KT P6SM BKN250=



000
FTUS41 KOKX 282000 AAA
TAFISP
TAF AMD
KISP 282030Z 2821/2918 22009KT P6SM SCT250
     FM290100 VRB03KT P6SM SCT250
     FM291600 21008KT P6SM FEW050 BKN150=



000
FTUS41 KOKX 282000 AAA
TAFJFK
TAF AMD
KJFK 282030Z 2821/2924 19010KT P6SM SCT250
     FM290100 22005KT P6SM BKN250
     FM291600 19010KT P6SM FEW050 BKN150=



000
FTUS41 KOKX 282000 AAA
TAFEWR
TAF AMD
KEWR 282030Z 2821/2924 22008KT P6SM SCT250
     FM290000 VRB03KT P6SM BKN250
     FM291700 23006KT P6SM FEW050 BKN150=



000
FTUS41 KOKX 282000 AAA
TAFSWF
TAF AMD
KSWF 282030Z 2821/2924 26005KT P6SM SCT120 BKN250
     FM282300 VRB02KT P6SM SCT120 BKN250
      TEMPO 2908/2912 5SM BR
     FM291800 24005KT P6SM FEW050 BKN150
      AMD NOT SKED=



000
FTUS41 KOKX 282000 AAA
TAFBDR
TAF AMD
KBDR 282030Z 2821/2918 21007KT P6SM SCT250
     FM290100 VRB03KT P6SM SCT250
     FM291500 20007KT P6SM FEW050 BKN150=



000
FTUS41 KOKX 282000 AAA
TAFLGA
TAF AMD
KLGA 282030Z 2821/2918 18009KT P6SM SCT250
     FM290000 VRB03KT P6SM BKN250
     FM291700 20008KT P6SM FEW050 BKN150=



000
FTUS41 KOKX 282000 AAA
TAFTEB
TAF AMD
KTEB 282030Z 2821/2918 18006KT P6SM SCT250
     FM282300 VRB02KT P6SM BKN250
     FM291700 23005KT P6SM FEW050 BKN150=



000
FTUS41 KOKX 281700
TAFGON
TAF
KGON 281721Z 2818/2918 20008KT P6SM SCT250
     FM282300 VRB02KT P6SM SCT250
     FM290800 VRB02KT 5SM BR SCT250
      TEMPO 2908/2912 2SM BR
     FM291200 VRB02KT P6SM SCT250
     FM291500 21008KT P6SM BKN250=



000
FTUS41 KOKX 281700
TAFLGA
TAF
KLGA 281721Z 2818/2918 18008KT P6SM SCT250
     FM290000 VRB03KT P6SM SCT250
     FM291700 20008KT P6SM FEW050 BKN150=



000
FTUS41 KOKX 281700
TAFISP
TAF
KISP 281721Z 2818/2918 20008KT P6SM SCT250
     FM290100 VRB03KT P6SM SCT250
     FM291600 21008KT P6SM FEW050 BKN150=



000
FTUS41 KOKX 281700
TAFEWR
TAF
KEWR 281721Z 2818/2924 18007KT P6SM SCT250
     FM290000 VRB03KT P6SM SCT250
     FM291700 23006KT P6SM FEW050 BKN150=



000
FTUS41 KOKX 281700
TAFJFK
TAF
KJFK 281721Z 2818/2924 19010KT P6SM SCT250
     FM290100 22005KT P6SM SCT250
     FM291600 19010KT P6SM FEW050 BKN150=



000
FTUS41 KOKX 281700
TAFTEB
TAF
KTEB 281721Z 2818/2918 20006KT P6SM SCT250
     FM282300 VRB02KT P6SM SCT250
     FM291700 23005KT P6SM FEW050 BKN150=



000
FTUS41 KOKX 281700
TAFBDR
TAF
KBDR 281721Z 2818/2918 20007KT P6SM SCT250
     FM290100 VRB03KT P6SM SCT250
     FM291500 20007KT P6SM FEW050 BKN150=



000
FTUS41 KOKX 281700
TAFSWF
TAF
KSWF 281721Z 2818/2924 24005KT P6SM SCT250
     FM282300 VRB02KT P6SM BKN250
     FM291800 24005KT P6SM FEW050 BKN150
      AMD NOT SKED=



000
FTUS41 KOKX 281400 AAA
TAFSWF
TAF AMD
KSWF 281430Z 2815/2918 VRB03KT P6SM SKC
     FM281700 25006KT P6SM SKC
     FM290100 VRB02KT P6SM SCT250
     FM291600 25006KT P6SM FEW050 BKN150
      AMD NOT SKED=



000
FTUS41 KOKX 281400 AAA
TAFLGA
TAF AMD
KLGA 281430Z 2815/2912 VRB03KT P6SM BKN250
     FM281700 18008KT P6SM BKN250
     FM290300 VRB03KT P6SM SCT250=



000
FTUS41 KOKX 281400 AAB
TAFISP
TAF AMD
KISP 281430Z 2815/2912 VRB03KT P6SM SCT250
     FM281700 19008KT P6SM SCT250
     FM290100 VRB03KT P6SM SCT250=



000
FTUS41 KOKX 281400 AAB
TAFGON
TAF AMD
KGON 281430Z 2815/2912 20008KT P6SM SCT250
     FM290100 VRB03KT P6SM SCT250=



000
FTUS41 KOKX 281400 AAA
TAFTEB
TAF AMD
KTEB 281430Z 2815/2912 VRB03KT P6SM BKN250
     FM281700 20006KT P6SM SCT250
     FM290100 VRB02KT P6SM SCT250=



000
FTUS41 KOKX 281400 AAA
TAFJFK
TAF AMD
KJFK 281430Z 2815/2918 19006KT P6SM BKN250
     FM281700 19008KT P6SM BKN250
     FM281900 19011KT P6SM SCT250
     FM290100 VRB04KT P6SM SCT250
     FM291600 21006KT P6SM FEW050 BKN150=



000
FTUS41 KOKX 281400 AAA
TAFBDR
TAF AMD
KBDR 281430Z 2815/2912 VRB03KT P6SM SCT250
     FM281600 19007KT P6SM BKN250
     FM290100 VRB03KT P6SM SCT250=



000
FTUS41 KOKX 281400 AAA
TAFEWR
TAF AMD
KEWR 281430Z 2815/2918 VRB03KT P6SM BKN250
     FM281700 20007KT P6SM SCT250
     FM290100 VRB04KT P6SM SCT250
     FM291600 25006KT P6SM FEW050 BKN150=



000
FTUS41 KOKX 281300 AAA
TAFGON
TAF AMD
KGON 281304Z 2813/2912 VRB03KT P6SM SKC
     FM281600 20008KT P6SM SCT250
     FM290100 VRB03KT P6SM SCT250=



000
FTUS41 KOKX 281300 AAA
TAFISP
TAF AMD
KISP 281303Z 2813/2912 VRB03KT P6SM SCT250
     FM281600 19008KT P6SM SKC
     FM290100 VRB03KT P6SM SCT250=



000
FTUS41 KOKX 281100
TAFLGA
TAF
KLGA 281120Z 2812/2912 VRB03KT P6SM SKC
     FM281600 18008KT P6SM SKC
     FM290300 VRB03KT P6SM SCT250=



000
FTUS41 KOKX 281100
TAFTEB
TAF
KTEB 281120Z 2812/2912 VRB03KT P6SM SKC
     FM281600 20006KT P6SM SKC
     FM290100 VRB02KT P6SM SCT250=



000
FTUS41 KOKX 281100
TAFEWR
TAF
KEWR 281120Z 2812/2918 VRB03KT P6SM SKC
     FM281600 20008KT P6SM SKC
     FM290100 VRB04KT P6SM SCT250
     FM291600 25006KT P6SM FEW050 BKN150=



000
FTUS41 KOKX 281100
TAFISP
TAF
KISP 281120Z 2812/2912 VRB03KT 6SM BR SKC
     FM281300 VRB04KT P6SM SKC
     FM281600 19008KT P6SM SKC
     FM290100 VRB03KT P6SM SCT250=



000
FTUS41 KOKX 281100
TAFJFK
TAF
KJFK 281120Z 2812/2918 23005KT P6SM SKC
     FM281600 19008KT P6SM SKC
     FM281900 19011KT P6SM SKC
     FM290100 VRB04KT P6SM SCT250
     FM291600 21006KT P6SM FEW050 BKN150=



000
FTUS41 KOKX 281100
TAFSWF
TAF
KSWF 281120Z 2812/2918 VRB03KT P6SM SKC
     FM281600 25006KT P6SM SKC
     FM290100 VRB02KT P6SM SCT250
     FM291600 25006KT P6SM FEW050 BKN150
      AMD NOT SKED=



000
FTUS41 KOKX 281100
TAFBDR
TAF
KBDR 281120Z 2812/2912 VRB03KT P6SM SKC
     FM281600 19007KT P6SM SKC
     FM290100 VRB03KT P6SM SCT250=



000
FTUS41 KOKX 281100
TAFGON
TAF
KGON 281120Z 2812/2912 VRB03KT 6SM BR SKC
     FM281300 VRB04KT P6SM SKC
     FM281600 20008KT P6SM SKC
     FM290100 VRB03KT P6SM SCT250=



000
FTUS41 KOKX 280800 AAA
TAFTEB
TAF AMD
KTEB 280830Z 2809/2906 VRB02KT P6SM SKC
     FM281600 23005KT P6SM SKC
     FM281900 17007KT P6SM SCT250=



000
FTUS41 KOKX 280800 AAA
TAFEWR
TAF AMD
KEWR 280830Z 2809/2912 VRB02KT P6SM SKC
     FM281600 23007KT P6SM SKC
     FM281900 17007KT P6SM SCT250
     FM290100 21006KT P6SM SCT250=



000
FTUS41 KOKX 280800 AAA
TAFJFK
TAF AMD
KJFK 280830Z 2809/2912 VRB03KT P6SM SKC
     FM281500 19008KT P6SM SKC
     FM282000 19011KT P6SM SCT250
     FM290100 21007KT P6SM SCT250=



000
FTUS41 KOKX 280800 AAA
TAFSWF
TAF AMD
KSWF 280830Z 2809/2912 00000KT 5SM BR SKC
      TEMPO 2809/2811 1SM BR
     FM281200 VRB03KT P6SM SKC
     FM281500 25006KT P6SM FEW040
     FM290000 VRB03KT P6SM SCT250
      AMD NOT SKED=



000
FTUS41 KOKX 280800 AAA
TAFBDR
TAF AMD
KBDR 280830Z 2809/2906 VRB02KT P6SM SKC
     FM281400 23007KT P6SM SKC=



000
FTUS41 KOKX 280800 AAB
TAFISP
TAF AMD
KISP 280830Z 2809/2906 VRB02KT P6SM SKC
      TEMPO 2809/2812 5SM BR
     FM281400 24005KT P6SM SKC
     FM281900 20007KT P6SM SCT250=



000
FTUS41 KOKX 280800 AAA
TAFLGA
TAF AMD
KLGA 280830Z 2809/2906 VRB03KT P6SM SKC
     FM281500 23006KT P6SM SKC
     FM281800 18007KT P6SM SCT250=



000
FTUS41 KOKX 280800 AAB
TAFGON
TAF AMD
KGON 280830Z 2809/2906 VRB03KT 3SM BR SKC
      TEMPO 2809/2811 1SM BR
     FM281300 VRB03KT P6SM SKC
     FM281500 23007KT P6SM SKC=



000
FTUS41 KOKX 280800 AAA
TAFISP
TAF AMD
KISP 280808Z 2808/2906 VRB02KT P6SM SKC
      TEMPO 2808/2812 5SM BR
     FM281400 24005KT P6SM SKC
     FM281900 20007KT P6SM SCT250=



000
FTUS41 KOKX 280700 AAA
TAFGON
TAF AMD
KGON 280758Z 2808/2906 00000KT 1SM BR SKC
      TEMPO 2808/2811 1/2SM FG
     FM281300 VRB03KT P6SM SKC
     FM281500 23007KT P6SM SKC=



000
FTUS41 KOKX 280500
TAFISP
TAF
KISP 280522Z 2806/2906 VRB02KT P6SM SKC
      TEMPO 2810/2812 5SM BR
     FM281400 24005KT P6SM SKC
     FM281900 20007KT P6SM SCT250=



000
FTUS41 KOKX 280500
TAFEWR
TAF
KEWR 280522Z 2806/2912 VRB02KT P6SM SKC
     FM281600 23007KT P6SM SKC
     FM281900 17007KT P6SM SCT250
     FM290100 21006KT P6SM SCT250=



000
FTUS41 KOKX 280500
TAFJFK
TAF
KJFK 280522Z 2806/2912 VRB03KT P6SM SKC
     FM281500 19008KT P6SM SKC
     FM282000 19011KT P6SM SCT250
     FM290100 21007KT P6SM SCT250=



000
FTUS41 KOKX 280500
TAFTEB
TAF
KTEB 280522Z 2806/2906 VRB02KT P6SM SKC
     FM281600 23005KT P6SM SKC
     FM281900 17007KT P6SM SCT250=



000
FTUS41 KOKX 280500
TAFLGA
TAF
KLGA 280522Z 2806/2906 VRB03KT P6SM SKC
     FM281500 23006KT P6SM SKC
     FM281800 18007KT P6SM SCT250=



000
FTUS41 KOKX 280500
TAFGON
TAF
KGON 280522Z 2806/2906 VRB03KT P6SM SKC
     FM280700 00000KT 6SM BR SKC
      TEMPO 2808/2811 3SM BR
     FM281300 VRB03KT P6SM SKC
     FM281500 23007KT P6SM SKC=



000
FTUS41 KOKX 280500
TAFBDR
TAF
KBDR 280522Z 2806/2906 VRB02KT P6SM SKC
     FM281400 23007KT P6SM SKC=



000
FTUS41 KOKX 280500
TAFSWF
TAF
KSWF 280522Z 2806/2912 VRB03KT P6SM SKC
     FM280700 00000KT 5SM BR SKC
      TEMPO 2808/2811 1SM BR
     FM281200 VRB03KT P6SM SKC
     FM281500 25006KT P6SM FEW040
     FM290000 VRB03KT P6SM SCT250
      AMD NOT SKED=



000
FTUS41 KOKX 280200 AAA
TAFSWF
TAF AMD
KSWF 280230Z 2803/2906 VRB03KT P6SM SKC
     FM280700 00000KT 5SM BR SKC
      TEMPO 2808/2811 1SM BR
     FM281200 VRB03KT P6SM SKC
     FM281500 25006KT P6SM FEW040
     FM290000 VRB03KT P6SM SCT250
      AMD NOT SKED=



000
FTUS41 KOKX 280200 AAA
TAFISP
TAF AMD
KISP 280230Z 2803/2824 VRB02KT P6SM SKC
      TEMPO 2810/2812 5SM BR
     FM281400 24005KT P6SM SKC
     FM281900 20007KT P6SM SCT250=



000
FTUS41 KOKX 280200 AAA
TAFLGA
TAF AMD
KLGA 280230Z 2803/2824 VRB03KT P6SM SKC
     FM281500 23006KT P6SM SKC
     FM281800 18007KT P6SM SCT250=



000
FTUS41 KOKX 280200 AAA
TAFTEB
TAF AMD
KTEB 280230Z 2803/2824 VRB02KT P6SM SKC
     FM281600 23005KT P6SM SKC
     FM281900 17007KT P6SM SCT250=



000
FTUS41 KOKX 280200 AAA
TAFGON
TAF AMD
KGON 280230Z 2803/2824 VRB03KT P6SM SKC
     FM280700 00000KT 6SM BR SKC
      TEMPO 2808/2811 3SM BR
     FM281300 VRB03KT P6SM SKC
     FM281500 23007KT P6SM SKC=



000
FTUS41 KOKX 280200 AAA
TAFJFK
TAF AMD
KJFK 280230Z 2803/2906 VRB03KT P6SM SKC
     FM281500 19008KT P6SM SKC
     FM282000 19011KT P6SM SCT250
     FM290100 21007KT P6SM SCT250=



000
FTUS41 KOKX 280200 AAA
TAFEWR
TAF AMD
KEWR 280230Z 2803/2906 VRB02KT P6SM SKC
     FM281600 23007KT P6SM SKC
     FM281900 17007KT P6SM SCT250
     FM290100 21006KT P6SM SCT250=



000
FTUS41 KOKX 280200 AAA
TAFBDR
TAF AMD
KBDR 280230Z 2803/2824 VRB02KT P6SM SKC
     FM281400 23007KT P6SM SKC=



000
FTUS41 KOKX 272300
TAFEWR
TAF
KEWR 272330Z 2800/2906 15005KT P6SM SKC
     FM280100 VRB03KT P6SM SKC
     FM281600 23007KT P6SM SKC
     FM281900 17007KT P6SM SCT250
     FM290100 21006KT P6SM SCT250=



000
FTUS41 KOKX 272300
TAFBDR
TAF
KBDR 272330Z 2800/2824 VRB02KT P6SM SKC
     FM281400 23007KT P6SM SKC=



000
FTUS41 KOKX 272300
TAFJFK
TAF
KJFK 272330Z 2800/2906 VRB03KT P6SM SKC
     FM281500 19008KT P6SM SKC
     FM282000 19011KT P6SM SCT250
     FM290100 21007KT P6SM SCT250=



000
FTUS41 KOKX 272300
TAFISP
TAF
KISP 272330Z 2800/2824 21004KT P6SM SKC
     FM280100 VRB02KT P6SM SKC
      TEMPO 2810/2812 5SM BR
     FM281400 24005KT P6SM SKC
     FM281900 20007KT P6SM SCT250=



000
FTUS41 KOKX 272300
TAFGON
TAF
KGON 272330Z 2800/2824 VRB03KT P6SM SKC
     FM280600 00000KT 6SM BR SKC
      TEMPO 2808/2811 3SM BR
     FM281300 VRB03KT P6SM SKC
     FM281500 23007KT P6SM SKC=



000
FTUS41 KOKX 272300
TAFLGA
TAF
KLGA 272330Z 2800/2824 VRB04KT P6SM SKC
     FM281500 23006KT P6SM SKC
     FM281800 18007KT P6SM SCT250=



000
FTUS41 KOKX 272300
TAFSWF
TAF
KSWF 272330Z 2800/2906 VRB03KT P6SM SKC
     FM280600 00000KT 4SM BR SKC
      TEMPO 2808/2811 1SM BR
     FM281200 VRB03KT P6SM SKC
     FM281500 25006KT P6SM FEW040
     FM290000 VRB03KT P6SM SCT250
      AMD NOT SKED=



000
FTUS41 KOKX 272300
TAFTEB
TAF
KTEB 272330Z 2800/2824 VRB03KT P6SM SKC
     FM281600 23005KT P6SM SKC
     FM281900 17007KT P6SM SCT250=



000
FTUS41 KOKX 272200 AAB
TAFLGA
TAF AMD
KLGA 272240Z 2723/2818 VRB04KT P6SM SKC
     FM281500 23006KT P6SM SKC=



000
FTUS41 KOKX 272000 AAB
TAFTEB
TAF AMD
KTEB 272031Z 2721/2818 07006KT P6SM SKC
     FM272200 VRB04KT P6SM SKC
     FM272300 15005KT P6SM SKC
     FM280100 VRB03KT P6SM SKC
     FM281600 23005KT P6SM SKC=



000
FTUS41 KOKX 272000 AAA
TAFLGA
TAF AMD
KLGA 272031Z 2721/2818 VRB05KT P6SM SKC
     FM272200 18008KT P6SM SKC
     FM280100 VRB04KT P6SM SKC
     FM281500 23006KT P6SM SKC=



000
FTUS41 KOKX 272000 AAA
TAFSWF
TAF AMD
KSWF 272031Z 2721/2824 VRB03KT P6SM SKC
     FM280600 00000KT 4SM BR SKC
      TEMPO 2808/2811 1SM BR
     FM281200 VRB03KT P6SM SKC
     FM281500 25006KT P6SM FEW040
      AMD NOT SKED=



000
FTUS41 KOKX 272000 AAB
TAFEWR
TAF AMD
KEWR 272031Z 2721/2824 VRB06KT P6SM SKC
     FM272300 15007KT P6SM SKC
     FM280100 VRB03KT P6SM SKC
     FM281600 23007KT P6SM SKC=



000
FTUS41 KOKX 272000 AAA
TAFISP
TAF AMD
KISP 272031Z 2721/2818 19007KT P6SM SKC
     FM280100 VRB03KT P6SM SKC
      TEMPO 2810/2812 5SM BR
     FM281400 24006KT P6SM SKC=



000
FTUS41 KOKX 272000 AAA
TAFBDR
TAF AMD
KBDR 272031Z 2721/2818 20007KT P6SM SKC
     FM280100 VRB03KT P6SM SKC
     FM281400 23007KT P6SM SKC=



000
FTUS41 KOKX 272000 AAA
TAFJFK
TAF AMD
KJFK 272031Z 2721/2824 17008KT P6SM SKC
     FM280100 VRB04KT P6SM SKC
     FM281500 19008KT P6SM SKC
     FM282000 19011KT P6SM SKC=



000
FTUS41 KOKX 272000 AAA
TAFGON
TAF AMD
KGON 272031Z 2721/2818 23008KT P6SM SKC
     FM280000 VRB03KT P6SM SKC
     FM280600 00000KT 5SM BR SKC
      TEMPO 2808/2811 2SM BR
     FM281300 VRB03KT P6SM SKC
     FM281500 23007KT P6SM SKC=



000
FTUS41 KOKX 271800 AAA
TAFTEB
TAF AMD
KTEB 271851Z 2719/2818 07006KT P6SM SKC
     FM272100 VRB04KT P6SM SKC
     FM272300 15005KT P6SM SKC
     FM280100 VRB03KT P6SM SKC
     FM281600 23005KT P6SM SKC=



000
FTUS41 KOKX 271800 AAA
TAFEWR
TAF AMD
KEWR 271850Z 2719/2824 VRB06KT P6SM SKC
     FM272200 15007KT P6SM SKC
     FM280100 VRB03KT P6SM SKC
     FM281600 23007KT P6SM SKC=



    US Dept of Commerce
    National Oceanic and Atmospheric Administration
    National Weather Service
    1325 East West Highway
    Silver Spring, MD 20910
    Page Author: NWS Internet Services Team
Disclaimer
Information Quality
Credits
Glossary
Privacy Policy
Freedom of Information Act (FOIA)
About Us
Career Opportunities